logo
Rechercher aéroport 
image banner adimage banner adimage banner ad
image banner ad

YWEA - Wanella Station

Situé à Coppabella, Australia

ICAO - , IATA -

Données fournies par Airmate  

Information générale

Coordonnées: S21°53'47" E148°22'11"
Élévation : 785 feet MSL.
Variation magnétique : 8° East
Voir autres Aéroports à Queensland

Données opérationnelles

Special qualification required
Heure actuelle UTC:
Heure actuelle locale:
Météo à : - ( 0 km )
METAR: ROTM 231556Z 33007KT 9999 SCT015 OVC020 21/16 A3013 RMK SLP203 T02060161
Voir NOTAMs / SUP AIP / TFR affectant cet aéroport [VIEW]
Fréquences de communication: [VIEW]

Pistes:

Identifiant RWYQFULongueur (ft)Largeur (ft)SurfaceLDA (ft)
24251°373947ASPH
0671°373947ASPH

Coordonnées de l'aéroport

Adresse: Coppabella Australia

Vue satellite de YWEA